createdAt,value
2018-05-24T00:01:12.672Z,19.77
2018-05-24T00:03:40.978Z,16.17
2018-05-24T00:06:08.541Z,18.90
2018-05-24T00:08:36.090Z,17.53
2018-05-24T00:11:03.927Z,17.60
2018-05-24T00:13:32.246Z,17.30
2018-05-24T00:15:59.806Z,21.93
2018-05-24T00:18:27.361Z,18.33
2018-05-24T00:20:54.946Z,19.83
2018-05-24T00:23:22.506Z,20.13
2018-05-24T00:25:50.092Z,18.77
2018-05-24T00:28:18.411Z,18.97
2018-05-24T00:30:45.972Z,19.80
2018-05-24T00:33:13.514Z,25.20
2018-05-24T00:35:41.125Z,18.47
2018-05-24T00:38:08.671Z,20.43
2018-05-24T00:40:36.232Z,20.33
2018-05-24T00:43:03.784Z,22.47
2018-05-24T00:45:31.340Z,19.03
2018-05-24T00:47:59.430Z,23.63
2018-05-24T00:50:26.970Z,24.17
2018-05-24T00:52:54.548Z,26.47
2018-05-24T00:55:46.004Z,20.17
2018-05-24T00:58:14.788Z,19.17
2018-05-24T01:00:43.108Z,18.37
2018-05-24T01:03:10.650Z,22.27
2018-05-24T01:05:38.191Z,21.97
2018-05-24T01:08:05.756Z,21.83
2018-05-24T01:10:33.287Z,26.67
2018-05-24T01:13:01.612Z,27.27
2018-05-24T01:15:29.175Z,21.30
2018-05-24T01:17:56.751Z,21.40
2018-05-24T01:20:24.348Z,18.03
2018-05-24T01:22:52.671Z,27.53
2018-05-24T01:25:20.200Z,18.50
2018-05-24T01:27:47.760Z,16.80
2018-05-24T01:30:15.305Z,28.60
2018-05-24T01:32:42.891Z,25.17
2018-05-24T01:35:10.442Z,25.33
2018-05-24T01:37:50.707Z,47.83
2018-05-24T01:40:18.273Z,25.60
2018-05-24T01:42:45.848Z,26.10
2018-05-24T01:45:13.399Z,26.70
2018-05-24T01:47:40.978Z,24.73
2018-05-24T01:50:08.527Z,29.63
2018-05-24T01:52:36.104Z,29.87
2018-05-24T01:55:03.725Z,26.23
2018-05-24T01:57:31.296Z,28.03
2018-05-24T01:59:58.846Z,30.40
2018-05-24T02:02:26.411Z,30.87
2018-05-24T02:04:53.972Z,34.20
2018-05-24T02:07:21.542Z,47.57
2018-05-24T02:09:49.094Z,38.17
2018-05-24T02:12:16.668Z,31.80
2018-05-24T02:14:44.219Z,31.67
2018-05-24T02:17:11.804Z,31.83
2018-05-24T02:19:40.164Z,28.87
2018-05-24T02:22:07.754Z,30.40
2018-05-24T02:24:36.164Z,31.37
2018-05-24T02:27:03.777Z,32.00
2018-05-24T02:29:32.143Z,31.73
2018-05-24T02:31:59.772Z,35.13
2018-05-24T02:34:27.333Z,36.17
2018-05-24T02:36:54.953Z,32.00
2018-05-24T02:39:22.513Z,40.13
2018-05-24T02:41:50.168Z,40.43
2018-05-24T02:44:17.725Z,33.70
2018-05-24T02:46:47.322Z,30.80
2018-05-24T02:49:15.648Z,27.93
2018-05-24T02:51:43.222Z,28.17
2018-05-24T02:54:10.829Z,30.83
2018-05-24T02:56:38.468Z,28.50
2018-05-24T02:59:06.063Z,29.83
2018-05-24T03:01:33.836Z,34.27
2018-05-24T03:04:01.337Z,31.93
2018-05-24T03:06:29.725Z,32.50
2018-05-24T03:08:57.293Z,29.70
2018-05-24T03:11:25.703Z,24.83
2018-05-24T03:13:53.249Z,25.33
2018-05-24T03:16:20.812Z,28.60
2018-05-24T03:18:48.447Z,34.40
2018-05-24T03:21:16.752Z,33.87
2018-05-24T03:23:44.368Z,32.00
2018-05-24T03:26:12.749Z,29.20
2018-05-24T03:28:40.410Z,25.33
2018-05-24T03:31:08.789Z,27.73
2018-05-24T03:33:36.405Z,30.90
2018-05-24T03:36:04.029Z,26.93
2018-05-24T03:38:32.363Z,27.93
2018-05-24T03:40:59.904Z,28.30
2018-05-24T03:43:27.495Z,28.50
2018-05-24T03:45:55.036Z,30.83
2018-05-24T03:48:22.641Z,28.57
2018-05-24T03:50:50.978Z,31.80
2018-05-24T03:53:18.543Z,25.87
2018-05-24T03:55:46.086Z,29.33
2018-05-24T03:58:13.648Z,22.30
2018-05-24T04:00:53.157Z,26.20
2018-05-24T04:03:32.627Z,29.27
2018-05-24T04:06:00.167Z,26.60
2018-05-24T04:08:27.744Z,27.93
2018-05-24T04:10:55.290Z,25.13
2018-05-24T04:13:22.846Z,24.63
2018-05-24T04:15:50.419Z,27.17
2018-05-24T04:18:17.972Z,23.33
2018-05-24T04:20:45.997Z,24.23
2018-05-24T04:23:14.399Z,23.53
2018-05-24T04:25:41.908Z,25.87
2018-05-24T04:28:09.475Z,24.07
2018-05-24T04:30:37.020Z,19.73
2018-05-24T04:33:05.633Z,20.73
2018-05-24T04:35:33.177Z,21.70
2018-05-24T04:38:00.756Z,21.10
2018-05-24T04:40:28.315Z,22.53
2018-05-24T04:42:56.644Z,20.70
2018-05-24T04:45:24.289Z,24.77
2018-05-24T04:47:51.820Z,22.27
2018-05-24T04:50:19.436Z,21.62
2018-05-24T04:52:47.034Z,20.37
2018-05-24T04:55:14.620Z,23.53
2018-05-24T04:57:42.178Z,22.70
2018-05-24T05:00:09.797Z,21.30
2018-05-24T05:02:38.112Z,24.00
2018-05-24T05:05:05.757Z,22.92
2018-05-24T05:07:33.312Z,19.60
2018-05-24T05:10:00.896Z,20.00
2018-05-24T05:12:28.434Z,22.33
2018-05-24T05:14:55.992Z,20.12
2018-05-24T05:17:23.523Z,19.62
2018-05-24T05:19:51.849Z,19.55
2018-05-24T05:22:19.392Z,19.73
2018-05-24T05:24:46.939Z,20.25
2018-05-24T05:27:14.481Z,20.62
2018-05-24T05:29:42.801Z,16.70
2018-05-24T05:32:10.332Z,18.08
2018-05-24T05:37:06.681Z,18.08
2018-05-24T05:39:34.227Z,14.85
2018-05-24T05:42:04.451Z,14.87
2018-05-24T05:44:32.768Z,15.75
2018-05-24T05:47:00.295Z,13.45
2018-05-24T05:49:27.851Z,16.90
2018-05-24T05:51:55.464Z,13.30
2018-05-24T05:54:22.972Z,13.60
2018-05-24T05:56:50.535Z,12.82
2018-05-24T05:59:18.067Z,12.15
2018-05-24T06:01:46.430Z,21.45
2018-05-24T06:04:13.961Z,14.35
2018-05-24T06:06:41.491Z,13.15
2018-05-24T06:09:09.048Z,13.13
2018-05-24T06:11:36.576Z,12.65
2018-05-24T06:14:04.914Z,12.27
2018-05-24T06:16:32.465Z,15.32
2018-05-24T06:19:00.036Z,12.52
2018-05-24T06:21:27.629Z,13.02
2018-05-24T06:23:55.148Z,14.00
2018-05-24T06:26:22.684Z,16.55
2018-05-24T06:28:50.259Z,15.77
2018-05-24T06:31:17.796Z,14.95
2018-05-24T06:33:45.432Z,16.20
2018-05-24T06:36:12.981Z,15.05
2018-05-24T06:38:41.316Z,16.42
2018-05-24T06:41:08.855Z,14.00
2018-05-24T06:43:36.409Z,15.63
2018-05-24T06:46:03.939Z,12.05
2018-05-24T06:48:32.314Z,12.85
2018-05-24T06:51:00.694Z,12.40
2018-05-24T06:53:29.032Z,14.35
2018-05-24T06:55:56.571Z,12.05
2018-05-24T06:58:24.104Z,11.32
2018-05-24T07:00:51.664Z,13.35
2018-05-24T07:03:19.193Z,11.25
2018-05-24T07:05:46.758Z,11.12
2018-05-24T07:08:15.058Z,11.73
2018-05-24T07:10:42.607Z,17.17
2018-05-24T07:13:10.904Z,12.73
2018-05-24T07:15:38.458Z,11.27
2018-05-24T07:18:05.991Z,10.70
2018-05-24T07:20:34.320Z,11.15
2018-05-24T07:23:14.690Z,10.52
2018-05-24T07:25:42.244Z,12.68
2018-05-24T07:28:09.763Z,10.38
2018-05-24T07:30:37.308Z,11.10
2018-05-24T07:33:05.608Z,10.48
2018-05-24T07:35:33.155Z,10.50
2018-05-24T07:38:00.697Z,11.57
2018-05-24T07:40:29.019Z,11.35
2018-05-24T07:42:56.539Z,10.50
2018-05-24T07:45:24.093Z,10.05
2018-05-24T07:47:52.378Z,11.02
2018-05-24T07:50:19.935Z,9.82
2018-05-24T07:52:47.475Z,12.63
2018-05-24T07:55:15.814Z,10.30
2018-05-24T07:57:43.362Z,10.90
2018-05-24T08:00:10.892Z,10.32
2018-05-24T08:02:38.451Z,12.18
2018-05-24T08:05:05.984Z,10.68
2018-05-24T08:07:34.304Z,10.32
2018-05-24T08:10:01.836Z,11.25
2018-05-24T08:12:30.147Z,10.90
2018-05-24T08:14:57.676Z,11.98
2018-05-24T08:17:25.220Z,9.85
2018-05-24T08:19:53.507Z,12.18
2018-05-24T08:22:21.055Z,10.40
2018-05-24T08:24:49.347Z,11.65
2018-05-24T08:27:17.572Z,12.52
2018-05-24T08:29:45.108Z,12.65
2018-05-24T08:32:12.668Z,12.50
2018-05-24T08:34:40.206Z,12.30
2018-05-24T08:37:07.760Z,15.90
2018-05-24T08:39:35.327Z,12.05
2018-05-24T08:42:02.861Z,13.98
2018-05-24T08:44:31.175Z,14.63
2018-05-24T08:46:58.731Z,16.80
2018-05-24T08:49:26.287Z,14.13
2018-05-24T08:51:53.827Z,14.52
2018-05-24T08:54:21.420Z,19.62
2018-05-24T08:56:48.948Z,15.45
2018-05-24T08:59:16.496Z,18.52
2018-05-24T09:01:44.028Z,16.10
2018-05-24T09:04:11.592Z,16.90
2018-05-24T09:06:39.895Z,18.42
2018-05-24T09:09:07.491Z,17.98
2018-05-24T09:11:35.072Z,19.23
2018-05-24T09:14:02.567Z,18.52
2018-05-24T09:16:30.090Z,17.80
2018-05-24T09:18:57.639Z,17.95
2018-05-24T09:21:25.168Z,18.60
2018-05-24T09:23:52.720Z,17.73
2018-05-24T09:26:20.269Z,18.80
2018-05-24T09:28:47.805Z,19.02
2018-05-24T09:31:16.123Z,18.20
2018-05-24T09:33:43.647Z,18.65
2018-05-24T09:36:11.209Z,58.72
2018-05-24T09:38:38.731Z,18.75
2018-05-24T09:41:06.283Z,20.17
2018-05-24T09:43:33.811Z,18.37
2018-05-24T09:46:01.357Z,19.77
2018-05-24T09:48:28.899Z,21.80
2018-05-24T09:50:56.443Z,19.98
2018-05-24T09:53:24.739Z,19.73
2018-05-24T09:55:52.304Z,20.12
2018-05-24T09:58:19.833Z,19.90
2018-05-24T10:00:48.148Z,20.67
2018-05-24T10:03:15.676Z,24.27
2018-05-24T10:05:43.989Z,22.30
2018-05-24T10:08:11.519Z,22.05
2018-05-24T10:10:39.082Z,20.83
2018-05-24T10:13:06.607Z,20.12
2018-05-24T10:15:34.151Z,20.48
2018-05-24T10:18:01.675Z,20.05
2018-05-24T10:20:29.195Z,21.17
2018-05-24T10:22:57.513Z,21.45
2018-05-24T10:25:25.045Z,21.92
2018-05-24T10:27:52.595Z,21.48
2018-05-24T10:30:20.891Z,22.65
2018-05-24T10:32:48.664Z,23.02
2018-05-24T10:35:16.205Z,24.17
2018-05-24T10:37:43.770Z,22.67
2018-05-24T10:40:11.296Z,21.58
2018-05-24T10:42:39.631Z,21.98
2018-05-24T10:45:07.247Z,22.17
2018-05-24T10:47:34.760Z,23.55
2018-05-24T10:50:02.307Z,22.05
2018-05-24T10:52:29.857Z,22.30
2018-05-24T10:54:57.421Z,23.60
2018-05-24T10:57:24.971Z,23.20
2018-05-24T10:59:52.499Z,23.65
2018-05-24T11:02:20.051Z,23.77
2018-05-24T11:04:48.339Z,22.02
2018-05-24T11:07:15.878Z,21.08
2018-05-24T11:09:44.171Z,23.10
2018-05-24T11:12:11.727Z,22.45
2018-05-24T11:14:40.020Z,23.45
2018-05-24T11:17:07.780Z,21.85
2018-05-24T11:19:35.303Z,23.12
2018-05-24T11:22:02.856Z,21.98
2018-05-24T11:24:30.389Z,21.62
2018-05-24T11:26:57.907Z,20.37
2018-05-24T11:29:25.491Z,22.67
2018-05-24T11:31:53.091Z,23.75
2018-05-24T11:34:20.581Z,21.30
2018-05-24T11:36:48.117Z,23.65
2018-05-24T11:39:16.432Z,23.23
2018-05-24T11:41:44.596Z,22.37
2018-05-24T11:44:12.177Z,22.25
2018-05-24T11:46:39.702Z,21.73
2018-05-24T11:49:07.257Z,20.80
2018-05-24T11:51:34.807Z,19.92
2018-05-24T11:54:03.128Z,18.98
2018-05-24T11:56:30.663Z,19.65
2018-05-24T11:58:58.214Z,19.45
2018-05-24T12:01:25.744Z,19.90
2018-05-24T12:03:53.287Z,19.33
2018-05-24T12:06:20.812Z,19.37
2018-05-24T12:08:48.356Z,20.23
2018-05-24T12:11:15.891Z,18.52
2018-05-24T12:13:44.217Z,18.12
2018-05-24T12:16:11.751Z,16.62
2018-05-24T12:18:39.291Z,17.83
2018-05-24T12:21:07.603Z,15.75
2018-05-24T12:23:35.132Z,16.20
2018-05-24T12:26:02.696Z,16.08
2018-05-24T12:28:30.238Z,15.73
2018-05-24T12:30:58.564Z,15.57
2018-05-24T12:33:26.102Z,20.15
2018-05-24T12:35:53.660Z,20.98
2018-05-24T12:38:21.191Z,20.70
2018-05-24T12:40:48.771Z,15.35
2018-05-24T12:43:16.326Z,16.27
2018-05-24T12:45:43.883Z,16.92
2018-05-24T12:48:11.418Z,15.75
2018-05-24T12:50:39.740Z,15.93
2018-05-24T12:53:07.270Z,14.73
2018-05-24T12:55:34.828Z,15.00
2018-05-24T12:58:02.359Z,15.57
2018-05-24T13:00:29.989Z,15.38
2018-05-24T13:02:57.518Z,16.55
2018-05-24T13:05:25.053Z,17.20
2018-05-24T13:07:53.366Z,16.15
2018-05-24T13:10:21.683Z,15.65
2018-05-24T13:12:49.241Z,15.43
2018-05-24T13:15:16.776Z,16.48
2018-05-24T13:17:44.437Z,16.45
2018-05-24T13:20:11.972Z,15.70
2018-05-24T13:22:39.535Z,15.95
2018-05-24T13:25:07.067Z,15.13
2018-05-24T13:27:34.625Z,16.52
2018-05-24T13:30:02.159Z,18.33
2018-05-24T13:32:41.500Z,18.12
2018-05-24T13:35:09.849Z,16.75
2018-05-24T13:37:37.403Z,16.70
2018-05-24T13:40:04.931Z,17.48
2018-05-24T13:42:32.479Z,17.37
2018-05-24T13:45:00.010Z,15.88
2018-05-24T13:47:28.327Z,15.77
2018-05-24T13:49:55.872Z,18.52
2018-05-24T13:52:23.425Z,17.12
2018-05-24T13:54:50.960Z,19.12
2018-05-24T13:57:31.187Z,17.12
2018-05-24T13:59:58.713Z,18.23
2018-05-24T14:02:26.273Z,17.00
2018-05-24T14:04:53.807Z,19.08
2018-05-24T14:07:22.131Z,19.52
2018-05-24T14:09:49.658Z,18.40
2018-05-24T14:12:17.192Z,18.67
2018-05-24T14:14:46.324Z,17.37
2018-05-24T14:17:13.858Z,17.58
2018-05-24T14:19:41.402Z,18.02
2018-05-24T14:22:09.738Z,18.58
2018-05-24T14:24:37.283Z,13.73
2018-05-24T14:27:04.807Z,13.65
2018-05-24T14:29:32.364Z,17.85
2018-05-24T14:32:00.659Z,15.15
2018-05-24T14:34:28.211Z,16.00
2018-05-24T14:36:55.736Z,15.38
2018-05-24T14:39:23.295Z,16.50
2018-05-24T14:41:51.589Z,16.50
2018-05-24T14:44:19.913Z,16.70
2018-05-24T14:46:47.448Z,19.52
2018-05-24T14:49:14.990Z,14.80
2018-05-24T14:51:42.510Z,14.18
2018-05-24T14:54:10.050Z,13.23
2018-05-24T14:56:37.579Z,16.15
2018-05-24T14:59:05.127Z,12.80
2018-05-24T15:01:32.655Z,12.98
2018-05-24T15:04:00.209Z,12.88
2018-05-24T15:06:27.744Z,13.55
2018-05-24T15:08:55.305Z,15.23
2018-05-24T15:11:22.831Z,14.00
2018-05-24T15:13:51.266Z,14.05
2018-05-24T15:16:19.571Z,16.30
2018-05-24T15:18:47.128Z,16.37
2018-05-24T15:21:14.655Z,18.85
2018-05-24T15:23:42.189Z,14.60
2018-05-24T15:26:09.739Z,14.90
2018-05-24T15:28:37.282Z,16.75
2018-05-24T15:31:04.862Z,16.17
2018-05-24T15:33:32.407Z,14.07
2018-05-24T15:35:59.946Z,12.93
2018-05-24T15:38:27.501Z,16.08
2018-05-24T15:40:55.028Z,12.55
2018-05-24T15:43:23.348Z,14.20
2018-05-24T15:45:51.647Z,12.50
2018-05-24T15:48:19.212Z,11.60
2018-05-24T15:50:46.752Z,12.85
2018-05-24T15:53:14.294Z,12.55
2018-05-24T15:55:41.824Z,13.60
2018-05-24T15:58:10.143Z,16.90
2018-05-24T16:00:37.698Z,12.13
2018-05-24T16:03:05.261Z,6.07
2018-05-24T16:05:32.798Z,4.10
2018-05-24T16:08:00.345Z,3.97
2018-05-24T16:10:27.871Z,4.18
2018-05-24T16:12:55.411Z,4.72
2018-05-24T16:15:22.940Z,6.47
2018-05-24T16:17:50.488Z,7.00
2018-05-24T16:20:18.008Z,5.32
2018-05-24T16:22:45.547Z,6.37
2018-05-24T16:25:13.071Z,7.43
2018-05-24T16:27:40.616Z,7.68
2018-05-24T16:30:08.135Z,9.00
2018-05-24T16:32:35.679Z,4.50
2018-05-24T16:35:03.199Z,5.25
2018-05-24T16:37:30.743Z,5.87
2018-05-24T16:39:58.311Z,8.10
2018-05-24T16:42:25.820Z,7.80
2018-05-24T16:44:53.344Z,8.48
2018-05-24T16:47:20.892Z,5.87
2018-05-24T16:49:49.395Z,7.40
2018-05-24T16:52:16.979Z,6.25
2018-05-24T16:54:44.510Z,12.30
2018-05-24T16:57:12.027Z,7.72
2018-05-24T16:59:40.328Z,8.10
2018-05-24T17:02:07.847Z,9.30
2018-05-24T17:04:36.163Z,9.52
2018-05-24T17:07:03.687Z,6.28
2018-05-24T17:09:32.000Z,6.75
2018-05-24T17:12:00.323Z,6.82
2018-05-24T17:14:27.876Z,5.57
2018-05-24T17:16:55.407Z,5.90
2018-05-24T17:19:22.959Z,6.97
2018-05-24T17:21:50.492Z,7.00
2018-05-24T17:24:18.911Z,7.10
2018-05-24T17:26:46.427Z,8.05
2018-05-24T17:29:13.971Z,7.40
2018-05-24T17:31:42.286Z,14.40
2018-05-24T17:34:09.847Z,9.63
2018-05-24T17:36:37.380Z,9.05
2018-05-24T17:39:04.924Z,8.00
2018-05-24T17:41:32.469Z,10.50
2018-05-24T17:44:00.019Z,9.07
2018-05-24T17:46:27.583Z,10.10
2018-05-24T17:48:55.136Z,9.88
2018-05-24T17:51:22.695Z,10.32
2018-05-24T17:53:50.240Z,13.50
2018-05-24T17:56:18.513Z,12.85
2018-05-24T17:58:46.548Z,8.77
2018-05-24T18:01:14.072Z,10.30
2018-05-24T18:03:42.388Z,9.05
2018-05-24T18:06:09.915Z,10.90
2018-05-24T18:08:38.240Z,12.35
2018-05-24T18:11:05.767Z,10.35
2018-05-24T18:13:34.057Z,11.15
2018-05-24T18:16:01.591Z,11.73
2018-05-24T18:18:29.148Z,13.80
2018-05-24T18:20:56.999Z,13.10
2018-05-24T18:23:25.321Z,10.35
2018-05-24T18:25:52.892Z,11.20
2018-05-24T18:28:20.435Z,12.98
2018-05-24T18:30:47.964Z,9.80
2018-05-24T18:33:15.511Z,12.45
2018-05-24T18:35:43.804Z,13.00
2018-05-24T18:38:11.423Z,11.00
2018-05-24T18:40:38.960Z,11.15
2018-05-24T18:43:06.504Z,11.57
2018-05-24T18:45:34.042Z,10.98
2018-05-24T18:48:01.591Z,8.18
2018-05-24T18:50:30.507Z,9.00
2018-05-24T18:52:58.804Z,9.65
2018-05-24T18:55:26.344Z,12.13
2018-05-24T18:57:53.871Z,10.93
2018-05-24T19:00:22.183Z,12.20
2018-05-24T19:02:49.704Z,11.82
2018-05-24T19:05:18.009Z,9.15
2018-05-24T19:07:45.540Z,11.73
2018-05-24T19:10:13.849Z,13.07
2018-05-24T19:12:41.376Z,13.43
2018-05-24T19:15:08.924Z,11.77
2018-05-24T19:17:37.220Z,13.25
2018-05-24T19:20:04.764Z,10.45
2018-05-24T19:22:33.061Z,11.80
2018-05-24T19:25:00.613Z,15.57
2018-05-24T19:27:28.138Z,11.23
2018-05-24T19:29:55.727Z,11.38
2018-05-24T19:32:23.288Z,9.55
2018-05-24T19:34:50.883Z,11.75
2018-05-24T19:37:18.390Z,10.55
2018-05-24T19:39:46.705Z,13.95
2018-05-24T19:42:14.233Z,8.88
2018-05-24T19:44:41.780Z,12.73
2018-05-24T19:47:09.320Z,10.25
2018-05-24T19:49:37.680Z,10.52
2018-05-24T19:52:05.216Z,50.25
2018-05-24T19:54:32.772Z,25.25
2018-05-24T19:57:00.307Z,15.48
2018-05-24T19:59:27.860Z,13.95
2018-05-24T20:01:55.392Z,12.68
2018-05-24T20:04:22.939Z,10.93
2018-05-24T20:06:50.472Z,12.48
2018-05-24T20:09:18.029Z,11.07
2018-05-24T20:11:45.560Z,10.65
2018-05-24T20:14:13.104Z,9.52
2018-05-24T20:16:41.400Z,13.82
2018-05-24T20:19:08.964Z,12.73
2018-05-24T20:21:36.504Z,13.90
2018-05-24T20:24:04.091Z,14.15
2018-05-24T20:26:31.634Z,15.43
2018-05-24T20:28:59.182Z,14.60
2018-05-24T20:31:27.467Z,13.20
2018-05-24T20:33:55.030Z,14.87
2018-05-24T20:36:22.596Z,14.55
2018-05-24T20:38:50.190Z,12.75
2018-05-24T20:41:17.719Z,13.07
2018-05-24T20:43:45.276Z,18.00
2018-05-24T20:46:12.803Z,15.38
2018-05-24T20:48:41.127Z,14.23
2018-05-24T20:51:08.675Z,16.52
2018-05-24T20:53:36.232Z,16.23
2018-05-24T20:56:03.787Z,17.12
2018-05-24T20:58:31.327Z,13.23
2018-05-24T21:00:58.900Z,14.65
2018-05-24T21:03:26.465Z,13.07
2018-05-24T21:05:54.073Z,14.60
2018-05-24T21:08:22.385Z,17.95
2018-05-24T21:10:49.954Z,20.80
2018-05-24T21:13:17.491Z,18.48
2018-05-24T21:15:45.052Z,16.25
2018-05-24T21:18:12.591Z,17.70
2018-05-24T21:20:40.931Z,21.98
2018-05-24T21:23:08.464Z,19.02
2018-05-24T21:25:36.012Z,19.42
2018-05-24T21:28:03.548Z,22.67
2018-05-24T21:30:31.876Z,18.83
2018-05-24T21:32:59.419Z,21.80
2018-05-24T21:35:26.976Z,19.33
2018-05-24T21:37:54.520Z,17.62
2018-05-24T21:40:22.084Z,17.97
2018-05-24T21:42:49.611Z,20.42
2018-05-24T21:45:17.936Z,19.00
2018-05-24T21:47:45.465Z,20.70
2018-05-24T21:50:13.019Z,20.20
2018-05-24T21:52:40.556Z,18.40
2018-05-24T21:55:08.888Z,20.85
2018-05-24T21:57:36.427Z,19.07
2018-05-24T22:00:03.994Z,21.17
2018-05-24T22:02:32.304Z,20.60
2018-05-24T22:04:59.867Z,24.67
2018-05-24T22:07:27.451Z,23.00
2018-05-24T22:09:55.779Z,21.35
2018-05-24T22:12:23.311Z,25.75
2018-05-24T22:14:50.869Z,26.25
2018-05-24T22:17:18.404Z,22.77
2018-05-24T22:19:45.964Z,20.25
2018-05-24T22:22:14.273Z,20.83
2018-05-24T22:24:41.829Z,23.27
2018-05-24T22:27:09.373Z,20.50
2018-05-24T22:29:36.935Z,24.02
2018-05-24T22:32:04.479Z,25.05
2018-05-24T22:34:32.808Z,26.20
2018-05-24T22:37:00.346Z,21.92
2018-05-24T22:39:27.897Z,26.37
2018-05-24T22:41:55.440Z,22.70
2018-05-24T22:44:22.975Z,23.08
2018-05-24T22:46:50.536Z,25.20
2018-05-24T22:49:18.848Z,23.10
2018-05-24T22:51:46.395Z,22.77
2018-05-24T22:54:13.933Z,22.35
2018-05-24T22:56:42.264Z,20.53
2018-05-24T22:59:09.805Z,21.05
2018-05-24T23:01:37.360Z,23.77
2018-05-24T23:04:04.908Z,24.50
2018-05-24T23:06:32.464Z,24.93
2018-05-24T23:09:00.003Z,26.47
2018-05-24T23:11:28.319Z,25.43
2018-05-24T23:13:55.852Z,26.00
2018-05-24T23:16:24.319Z,23.50
2018-05-24T23:18:51.851Z,25.93
2018-05-24T23:21:19.396Z,21.90
2018-05-24T23:23:46.930Z,25.83
2018-05-24T23:26:14.479Z,23.67
2018-05-24T23:28:42.043Z,26.53
2018-05-24T23:31:09.638Z,24.33
2018-05-24T23:33:37.144Z,25.90
2018-05-24T23:36:04.700Z,22.60
2018-05-24T23:38:32.261Z,22.33
2018-05-24T23:41:00.576Z,25.08
2018-05-24T23:43:28.118Z,23.47
2018-05-24T23:45:55.700Z,26.10
2018-05-24T23:48:23.225Z,26.80
2018-05-24T23:50:50.778Z,24.73
2018-05-24T23:53:18.312Z,28.30
2018-05-24T23:55:45.859Z,28.37
2018-05-24T23:58:13.400Z,22.63
